EDDN Airport Information

Runway Information
Runway 10 Length 8858 ft width 148 ft
Elevation 1022 ft Threshold 0 ft Heading 99
Runway 28 Length 8858 ft Width 148 ft
Elevation 1046 ft Threshold 0 ft Heading 279
Airport Frequencies
Type AFIS Name MUNCHEN IN Frequency 120.65 MHZ
Type ATIS Name ATIS Frequency 123.075 MHZ
Type DIR Name DIR Frequency 119.475 MHZ
Type GND Name GND Frequency 118.1 MHZ
Type RDR Name MUNCHEN RA Frequency 118.975 MHZ
Type TWR Name TWR Frequency 118.3 MHZ
Airport Navaids
Type DME Name Nurnberg Frequency 113100 KHZ
Type NDB Name Rothenbach Frequency 415 KHZ
Airport Weather Information & NOTAM
ADDS - METARS form results

(1543 UTC 14 June 2021)
Data provider http://aviationweather.gov/metar/data/
 
METAR text: EDDN 141520Z VRB03KT CAVOK 26/09 Q1020 NOSIG
Conditions at: EDDN (NUERNBERG , DE) observed 1520 UTC 14 June 2021
Temperature: 26.0°C (79°F)
Dewpoint: 9.0°C (48°F) [RH = 34%]
Pressure (altimeter): 30.12 inches Hg (1020.0 mb)
Winds: variable direction winds at 3 MPH (3 knots; 1.5 m/s)
Visibility: 6 or more miles (10+ km)
Ceiling: ceiling and visibility are OK
Clouds: unknown
Weather: no significant weather observed at this time

METAR text: EDDN 141450Z 21003KT 150V280 CAVOK 26/08 Q1020 NOSIG
Conditions at: EDDN (NUERNBERG , DE) observed 1450 UTC 14 June 2021
Temperature: 26.0°C (79°F)
Dewpoint: 8.0°C (46°F) [RH = 32%]
Pressure (altimeter): 30.12 inches Hg (1020.0 mb)
Winds: from the SSW (210 degrees) at 3 MPH (3 knots; 1.5 m/s)
Visibility: 6 or more miles (10+ km)
Ceiling: ceiling and visibility are OK
Clouds: unknown
Weather: no significant weather observed at this time

Forecast for: EDDN (NUERNBERG , DE)
Text: TAF EDDN 141100Z 1412/1512 13005KT CAVOK
Forecast period: 1200 UTC 14 June 2021 to 1200 UTC 15 June 2021
Forecast type: FROM: standard forecast or significant change
Winds: from the SE (130 degrees) at 6 MPH (5 knots; 2.6 m/s)
Visibility: 6 or more miles (10+ km)
Ceiling: unknown
Clouds: missing
Weather: NSW  (no significant weather)
Text: TEMPO 1414/1417 06005KT
Forecast period: 1400 to 1700 UTC 14 June 2021
Forecast type: TEMPORARY: The following changes expected for less than half the time period
Winds: from the ENE (60 degrees) at 6 MPH (5 knots; 2.6 m/s)
Visibility: missing
Ceiling: unknown
Clouds: missing
Weather: no significant weather forecast for this period